sensor_id;sensor_type;location;lat;lon;timestamp;pressure;altitude;pressure_sealevel;temperature;humidity
39793;BME280;26080;42.264;24.536;2022-10-01T00:00:33;99647.44;;;14.37;100.00
39793;BME280;26080;42.264;24.536;2022-10-01T00:02:59;99617.31;;;14.27;100.00
39793;BME280;26080;42.264;24.536;2022-10-01T00:05:24;99633.78;;;14.46;100.00
39793;BME280;26080;42.264;24.536;2022-10-01T00:07:50;99635.47;;;14.47;100.00
39793;BME280;26080;42.264;24.536;2022-10-01T00:10:15;99646.34;;;14.57;100.00
39793;BME280;26080;42.264;24.536;2022-10-01T00:12:46;99635.94;;;14.70;100.00
39793;BME280;26080;42.264;24.536;2022-10-01T00:15:15;99635.53;;;14.62;100.00
39793;BME280;26080;42.264;24.536;2022-10-01T00:17:41;99640.31;;;14.55;100.00
39793;BME280;26080;42.264;24.536;2022-10-01T00:20:08;99632.50;;;14.54;100.00
39793;BME280;26080;42.264;24.536;2022-10-01T00:22:35;99630.53;;;14.41;100.00
39793;BME280;26080;42.264;24.536;2022-10-01T00:25:02;99634.63;;;14.47;100.00
39793;BME280;26080;42.264;24.536;2022-10-01T00:27:28;99626.03;;;14.43;100.00
39793;BME280;26080;42.264;24.536;2022-10-01T00:29:54;99620.94;;;14.40;100.00
39793;BME280;26080;42.264;24.536;2022-10-01T00:32:20;99635.38;;;14.33;100.00
39793;BME280;26080;42.264;24.536;2022-10-01T00:34:46;99630.31;;;14.30;100.00
39793;BME280;26080;42.264;24.536;2022-10-01T00:37:13;99622.31;;;14.32;100.00
39793;BME280;26080;42.264;24.536;2022-10-01T00:39:38;99619.50;;;14.35;100.00
39793;BME280;26080;42.264;24.536;2022-10-01T00:42:16;99628.00;;;14.40;100.00
39793;BME280;26080;42.264;24.536;2022-10-01T00:44:42;99622.72;;;14.40;100.00
39793;BME280;26080;42.264;24.536;2022-10-01T00:49:39;99615.19;;;14.64;100.00
39793;BME280;26080;42.264;24.536;2022-10-01T00:52:12;99620.66;;;14.61;100.00
39793;BME280;26080;42.264;24.536;2022-10-01T00:57:18;99630.88;;;14.35;100.00
39793;BME280;26080;42.264;24.536;2022-10-01T00:59:46;99637.03;;;14.20;100.00
39793;BME280;26080;42.264;24.536;2022-10-01T01:02:12;99629.22;;;14.18;100.00
39793;BME280;26080;42.264;24.536;2022-10-01T01:04:39;99602.06;;;14.02;100.00
39793;BME280;26080;42.264;24.536;2022-10-01T01:07:05;99623.09;;;14.18;100.00
39793;BME280;26080;42.264;24.536;2022-10-01T01:09:34;99613.13;;;14.23;100.00
39793;BME280;26080;42.264;24.536;2022-10-01T01:20:31;99614.00;;;14.08;100.00
39793;BME280;26080;42.264;24.536;2022-10-01T01:28:43;99619.13;;;13.95;100.00
39793;BME280;26080;42.264;24.536;2022-10-01T01:31:14;99620.31;;;13.89;100.00
39793;BME280;26080;42.264;24.536;2022-10-01T01:33:44;99620.41;;;13.88;100.00
39793;BME280;26080;42.264;24.536;2022-10-01T01:36:15;99626.25;;;13.77;100.00
39793;BME280;26080;42.264;24.536;2022-10-01T01:38:48;99638.13;;;13.53;100.00
39793;BME280;26080;42.264;24.536;2022-10-01T01:41:24;99609.19;;;13.53;100.00
39793;BME280;26080;42.264;24.536;2022-10-01T01:43:56;99633.41;;;13.75;100.00
39793;BME280;26080;42.264;24.536;2022-10-01T01:46:26;99637.19;;;13.54;100.00
39793;BME280;26080;42.264;24.536;2022-10-01T01:48:56;99631.53;;;13.28;100.00
39793;BME280;26080;42.264;24.536;2022-10-01T01:51:30;99633.75;;;13.20;100.00
39793;BME280;26080;42.264;24.536;2022-10-01T01:53:56;99628.91;;;13.11;100.00
39793;BME280;26080;42.264;24.536;2022-10-01T01:56:22;99634.84;;;13.15;100.00
39793;BME280;26080;42.264;24.536;2022-10-01T01:58:48;99631.13;;;13.03;100.00
39793;BME280;26080;42.264;24.536;2022-10-01T02:01:40;99641.13;;;13.12;100.00
39793;BME280;26080;42.264;24.536;2022-10-01T02:04:22;99643.50;;;13.18;100.00
39793;BME280;26080;42.264;24.536;2022-10-01T02:12:29;99649.03;;;13.12;100.00
39793;BME280;26080;42.264;24.536;2022-10-01T02:20:18;99636.13;;;13.25;100.00
39793;BME280;26080;42.264;24.536;2022-10-01T02:22:51;99640.28;;;13.29;100.00
39793;BME280;26080;42.264;24.536;2022-10-01T02:25:20;99629.50;;;12.83;100.00
39793;BME280;26080;42.264;24.536;2022-10-01T02:28:01;99667.31;;;12.81;100.00
39793;BME280;26080;42.264;24.536;2022-10-01T02:30:31;99638.84;;;12.54;100.00
39793;BME280;26080;42.264;24.536;2022-10-01T02:33:00;99662.28;;;12.59;100.00
39793;BME280;26080;42.264;24.536;2022-10-01T02:35:29;99656.13;;;12.77;100.00
39793;BME280;26080;42.264;24.536;2022-10-01T02:37:58;99652.84;;;12.72;100.00
39793;BME280;26080;42.264;24.536;2022-10-01T02:40:27;99671.47;;;12.67;100.00
39793;BME280;26080;42.264;24.536;2022-10-01T02:43:00;99671.31;;;12.88;100.00
39793;BME280;26080;42.264;24.536;2022-10-01T02:45:29;99674.59;;;12.75;100.00
39793;BME280;26080;42.264;24.536;2022-10-01T02:48:02;99677.59;;;12.68;100.00
39793;BME280;26080;42.264;24.536;2022-10-01T02:50:38;99658.03;;;12.56;100.00
39793;BME280;26080;42.264;24.536;2022-10-01T02:53:09;99683.16;;;12.62;100.00
39793;BME280;26080;42.264;24.536;2022-10-01T02:55:36;99663.03;;;12.43;100.00
39793;BME280;26080;42.264;24.536;2022-10-01T02:58:04;99655.22;;;12.42;100.00
39793;BME280;26080;42.264;24.536;2022-10-01T03:00:30;99686.75;;;12.59;100.00
39793;BME280;26080;42.264;24.536;2022-10-01T03:02:55;99689.78;;;12.69;100.00
39793;BME280;26080;42.264;24.536;2022-10-01T03:05:21;99685.09;;;12.75;100.00
39793;BME280;26080;42.264;24.536;2022-10-01T03:07:47;99686.06;;;12.73;100.00
39793;BME280;26080;42.264;24.536;2022-10-01T03:10:13;99681.75;;;13.07;100.00
39793;BME280;26080;42.264;24.536;2022-10-01T03:12:40;99689.88;;;12.85;100.00
39793;BME280;26080;42.264;24.536;2022-10-01T03:15:08;99692.50;;;12.67;100.00
39793;BME280;26080;42.264;24.536;2022-10-01T03:17:34;99675.44;;;12.76;100.00
39793;BME280;26080;42.264;24.536;2022-10-01T03:20:02;99675.19;;;12.98;100.00
39793;BME280;26080;42.264;24.536;2022-10-01T03:22:27;99678.13;;;13.09;100.00
39793;BME280;26080;42.264;24.536;2022-10-01T03:24:53;99671.31;;;13.05;100.00
39793;BME280;26080;42.264;24.536;2022-10-01T03:27:19;99663.34;;;13.07;100.00
39793;BME280;26080;42.264;24.536;2022-10-01T03:29:45;99671.31;;;13.05;100.00
39793;BME280;26080;42.264;24.536;2022-10-01T03:32:11;99675.94;;;13.00;100.00
39793;BME280;26080;42.264;24.536;2022-10-01T03:34:36;99689.97;;;12.66;100.00
39793;BME280;26080;42.264;24.536;2022-10-01T03:37:02;99671.59;;;12.47;100.00
39793;BME280;26080;42.264;24.536;2022-10-01T03:39:28;99675.50;;;12.74;100.00
39793;BME280;26080;42.264;24.536;2022-10-01T03:41:53;99670.06;;;12.60;100.00
39793;BME280;26080;42.264;24.536;2022-10-01T03:44:18;99663.13;;;12.59;100.00
39793;BME280;26080;42.264;24.536;2022-10-01T03:46:44;99672.09;;;12.72;100.00
39793;BME280;26080;42.264;24.536;2022-10-01T03:49:09;99687.00;;;12.55;100.00
39793;BME280;26080;42.264;24.536;2022-10-01T03:51:35;99680.50;;;12.44;100.00
39793;BME280;26080;42.264;24.536;2022-10-01T03:54:02;99692.00;;;12.42;100.00
39793;BME280;26080;42.264;24.536;2022-10-01T03:56:27;99694.53;;;12.43;100.00
39793;BME280;26080;42.264;24.536;2022-10-01T03:58:53;99701.00;;;12.55;100.00
39793;BME280;26080;42.264;24.536;2022-10-01T04:01:19;99701.25;;;12.68;100.00
39793;BME280;26080;42.264;24.536;2022-10-01T04:03:44;99707.25;;;12.87;100.00
39793;BME280;26080;42.264;24.536;2022-10-01T04:06:10;99705.56;;;12.86;100.00
39793;BME280;26080;42.264;24.536;2022-10-01T04:08:36;99706.81;;;12.79;100.00
39793;BME280;26080;42.264;24.536;2022-10-01T04:11:02;99707.50;;;12.83;100.00
39793;BME280;26080;42.264;24.536;2022-10-01T04:13:28;99716.16;;;12.85;100.00
39793;BME280;26080;42.264;24.536;2022-10-01T04:15:54;99715.66;;;12.59;100.00
39793;BME280;26080;42.264;24.536;2022-10-01T04:18:20;99681.16;;;12.31;100.00
39793;BME280;26080;42.264;24.536;2022-10-01T04:20:46;99715.06;;;12.54;100.00
39793;BME280;26080;42.264;24.536;2022-10-01T04:23:12;99726.41;;;12.55;100.00
39793;BME280;26080;42.264;24.536;2022-10-01T04:25:38;99728.19;;;12.54;100.00
39793;BME280;26080;42.264;24.536;2022-10-01T04:28:06;99715.53;;;12.62;100.00
39793;BME280;26080;42.264;24.536;2022-10-01T04:30:35;99725.31;;;12.59;100.00
39793;BME280;26080;42.264;24.536;2022-10-01T04:33:01;99718.28;;;12.42;100.00
39793;BME280;26080;42.264;24.536;2022-10-01T04:35:27;99704.44;;;12.20;100.00
39793;BME280;26080;42.264;24.536;2022-10-01T04:38:00;99741.88;;;12.25;100.00
39793;BME280;26080;42.264;24.536;2022-10-01T04:40:32;99720.66;;;12.10;100.00
39793;BME280;26080;42.264;24.536;2022-10-01T04:42:59;99744.00;;;12.16;100.00
39793;BME280;26080;42.264;24.536;2022-10-01T04:45:24;99748.75;;;12.27;100.00
39793;BME280;26080;42.264;24.536;2022-10-01T04:47:52;99738.34;;;12.43;100.00
39793;BME280;26080;42.264;24.536;2022-10-01T04:50:18;99733.25;;;12.40;100.00
39793;BME280;26080;42.264;24.536;2022-10-01T04:52:44;99724.88;;;12.51;100.00
39793;BME280;26080;42.264;24.536;2022-10-01T04:55:10;99722.78;;;12.57;100.00
39793;BME280;26080;42.264;24.536;2022-10-01T04:57:36;99715.16;;;12.70;100.00
39793;BME280;26080;42.264;24.536;2022-10-01T05:00:04;99704.63;;;12.87;100.00
39793;BME280;26080;42.264;24.536;2022-10-01T05:02:30;99700.94;;;13.09;100.00
39793;BME280;26080;42.264;24.536;2022-10-01T05:05:05;99701.94;;;13.23;100.00
39793;BME280;26080;42.264;24.536;2022-10-01T05:07:32;99702.03;;;13.55;100.00
39793;BME280;26080;42.264;24.536;2022-10-01T05:09:58;99690.75;;;13.53;100.00
39793;BME280;26080;42.264;24.536;2022-10-01T05:12:24;99699.88;;;13.63;100.00
39793;BME280;26080;42.264;24.536;2022-10-01T05:14:54;99708.59;;;13.63;100.00
39793;BME280;26080;42.264;24.536;2022-10-01T05:17:20;99703.53;;;13.76;100.00
39793;BME280;26080;42.264;24.536;2022-10-01T05:19:47;99682.75;;;13.87;100.00
39793;BME280;26080;42.264;24.536;2022-10-01T05:22:12;99686.59;;;14.13;100.00
39793;BME280;26080;42.264;24.536;2022-10-01T05:24:38;99698.38;;;14.22;100.00
39793;BME280;26080;42.264;24.536;2022-10-01T05:27:04;99698.63;;;14.33;100.00
39793;BME280;26080;42.264;24.536;2022-10-01T05:29:30;99695.16;;;14.48;100.00
39793;BME280;26080;42.264;24.536;2022-10-01T05:31:56;99711.63;;;14.52;100.00
39793;BME280;26080;42.264;24.536;2022-10-01T05:34:22;99715.91;;;14.55;100.00
39793;BME280;26080;42.264;24.536;2022-10-01T05:36:48;99724.03;;;14.66;100.00
39793;BME280;26080;42.264;24.536;2022-10-01T05:39:13;99741.00;;;14.76;100.00
39793;BME280;26080;42.264;24.536;2022-10-01T05:41:39;99750.38;;;14.81;100.00
39793;BME280;26080;42.264;24.536;2022-10-01T05:44:06;99746.94;;;14.95;100.00
39793;BME280;26080;42.264;24.536;2022-10-01T05:46:31;99752.91;;;15.13;100.00
39793;BME280;26080;42.264;24.536;2022-10-01T05:48:57;99755.50;;;15.29;100.00
39793;BME280;26080;42.264;24.536;2022-10-01T05:51:23;99751.56;;;15.36;100.00
39793;BME280;26080;42.264;24.536;2022-10-01T05:53:48;99752.28;;;15.24;100.00
39793;BME280;26080;42.264;24.536;2022-10-01T05:56:14;99760.41;;;15.35;100.00
39793;BME280;26080;42.264;24.536;2022-10-01T05:58:39;99745.91;;;15.42;100.00
39793;BME280;26080;42.264;24.536;2022-10-01T06:01:05;99752.53;;;15.49;100.00
39793;BME280;26080;42.264;24.536;2022-10-01T06:03:30;99766.94;;;15.58;100.00
39793;BME280;26080;42.264;24.536;2022-10-01T06:05:56;99774.81;;;15.74;100.00
39793;BME280;26080;42.264;24.536;2022-10-01T06:08:21;99773.03;;;16.03;100.00
39793;BME280;26080;42.264;24.536;2022-10-01T06:10:48;99765.00;;;16.18;100.00
39793;BME280;26080;42.264;24.536;2022-10-01T06:13:14;99730.66;;;16.18;100.00
39793;BME280;26080;42.264;24.536;2022-10-01T06:15:42;99753.25;;;16.37;100.00
39793;BME280;26080;42.264;24.536;2022-10-01T06:18:09;99757.88;;;16.47;100.00
39793;BME280;26080;42.264;24.536;2022-10-01T06:20:36;99761.09;;;16.65;100.00
39793;BME280;26080;42.264;24.536;2022-10-01T06:23:03;99768.44;;;16.88;100.00
39793;BME280;26080;42.264;24.536;2022-10-01T06:25:35;99761.88;;;16.94;100.00
39793;BME280;26080;42.264;24.536;2022-10-01T06:28:03;99758.00;;;17.12;100.00
39793;BME280;26080;42.264;24.536;2022-10-01T06:30:30;99762.59;;;17.36;100.00
39793;BME280;26080;42.264;24.536;2022-10-01T06:33:04;99755.84;;;17.57;100.00
39793;BME280;26080;42.264;24.536;2022-10-01T06:35:31;99774.31;;;17.84;100.00
39793;BME280;26080;42.264;24.536;2022-10-01T06:37:57;99761.78;;;18.12;100.00
39793;BME280;26080;42.264;24.536;2022-10-01T06:40:23;99758.75;;;18.29;100.00
39793;BME280;26080;42.264;24.536;2022-10-01T06:42:49;99767.00;;;18.37;100.00
39793;BME280;26080;42.264;24.536;2022-10-01T06:45:16;99761.78;;;18.35;100.00
39793;BME280;26080;42.264;24.536;2022-10-01T06:47:42;99773.78;;;18.41;100.00
39793;BME280;26080;42.264;24.536;2022-10-01T06:50:09;99773.78;;;18.41;100.00
39793;BME280;26080;42.264;24.536;2022-10-01T06:52:35;99766.06;;;18.38;100.00
39793;BME280;26080;42.264;24.536;2022-10-01T06:55:16;99764.97;;;18.41;100.00
39793;BME280;26080;42.264;24.536;2022-10-01T06:57:41;99761.03;;;18.46;100.00
39793;BME280;26080;42.264;24.536;2022-10-01T07:00:07;99770.97;;;18.68;100.00
39793;BME280;26080;42.264;24.536;2022-10-01T07:02:33;99757.22;;;18.50;100.00
39793;BME280;26080;42.264;24.536;2022-10-01T07:04:59;99761.81;;;18.59;100.00
39793;BME280;26080;42.264;24.536;2022-10-01T07:07:32;99771.34;;;18.75;100.00
39793;BME280;26080;42.264;24.536;2022-10-01T07:09:59;99773.31;;;18.84;100.00
39793;BME280;26080;42.264;24.536;2022-10-01T07:12:24;99764.69;;;18.93;100.00
39793;BME280;26080;42.264;24.536;2022-10-01T07:14:50;99769.78;;;18.96;100.00
39793;BME280;26080;42.264;24.536;2022-10-01T07:17:16;99760.00;;;18.97;100.00
39793;BME280;26080;42.264;24.536;2022-10-01T07:19:41;99757.06;;;19.23;98.61
39793;BME280;26080;42.264;24.536;2022-10-01T07:22:07;99751.06;;;19.33;97.63
39793;BME280;26080;42.264;24.536;2022-10-01T07:24:32;99768.09;;;19.41;97.82
39793;BME280;26080;42.264;24.536;2022-10-01T07:26:58;99783.47;;;19.49;97.58
39793;BME280;26080;42.264;24.536;2022-10-01T07:29:24;99781.94;;;19.58;96.58
39793;BME280;26080;42.264;24.536;2022-10-01T07:31:55;99768.53;;;19.59;96.49
39793;BME280;26080;42.264;24.536;2022-10-01T07:34:22;99782.06;;;19.67;94.85
39793;BME280;26080;42.264;24.536;2022-10-01T07:36:49;99780.88;;;19.71;95.73
39793;BME280;26080;42.264;24.536;2022-10-01T07:39:14;99781.13;;;19.79;94.98
39793;BME280;26080;42.264;24.536;2022-10-01T07:41:41;99756.25;;;19.80;94.21
39793;BME280;26080;42.264;24.536;2022-10-01T07:44:07;99780.66;;;20.08;92.71
39793;BME280;26080;42.264;24.536;2022-10-01T07:46:32;99745.38;;;20.17;91.51
39793;BME280;26080;42.264;24.536;2022-10-01T07:48:58;99769.03;;;20.31;93.25
39793;BME280;26080;42.264;24.536;2022-10-01T07:51:23;99762.50;;;20.35;93.03
39793;BME280;26080;42.264;24.536;2022-10-01T07:53:51;99762.13;;;20.40;94.09
39793;BME280;26080;42.264;24.536;2022-10-01T07:56:16;99758.72;;;20.60;95.15
39793;BME280;26080;42.264;24.536;2022-10-01T07:58:42;99768.97;;;20.76;93.53
39793;BME280;26080;42.264;24.536;2022-10-01T08:01:07;99764.09;;;20.81;92.14
39793;BME280;26080;42.264;24.536;2022-10-01T08:03:34;99760.13;;;21.08;91.41
39793;BME280;26080;42.264;24.536;2022-10-01T08:05:59;99762.66;;;21.41;90.95
39793;BME280;26080;42.264;24.536;2022-10-01T08:08:29;99753.78;;;21.62;91.74
39793;BME280;26080;42.264;24.536;2022-10-01T08:10:55;99757.72;;;21.88;87.36
39793;BME280;26080;42.264;24.536;2022-10-01T08:13:20;99742.00;;;22.15;85.69
39793;BME280;26080;42.264;24.536;2022-10-01T08:15:50;99742.09;;;22.54;85.46
39793;BME280;26080;42.264;24.536;2022-10-01T08:18:18;99737.66;;;22.84;82.23
39793;BME280;26080;42.264;24.536;2022-10-01T08:20:44;99731.59;;;23.01;81.45
39793;BME280;26080;42.264;24.536;2022-10-01T08:23:12;99727.13;;;23.11;77.98
39793;BME280;26080;42.264;24.536;2022-10-01T08:25:39;99713.91;;;23.19;78.62
39793;BME280;26080;42.264;24.536;2022-10-01T08:28:06;99703.75;;;23.23;79.12
39793;BME280;26080;42.264;24.536;2022-10-01T08:30:31;99701.22;;;23.21;79.01
39793;BME280;26080;42.264;24.536;2022-10-01T08:33:00;99695.56;;;23.44;77.28
39793;BME280;26080;42.264;24.536;2022-10-01T08:35:27;99697.91;;;23.56;77.65
39793;BME280;26080;42.264;24.536;2022-10-01T08:37:52;99692.53;;;23.76;75.96
39793;BME280;26080;42.264;24.536;2022-10-01T08:40:21;99682.72;;;23.94;75.45
39793;BME280;26080;42.264;24.536;2022-10-01T08:42:58;99676.28;;;24.14;73.76
39793;BME280;26080;42.264;24.536;2022-10-01T08:45:45;99655.41;;;24.18;73.61
39793;BME280;26080;42.264;24.536;2022-10-01T08:53:27;99695.25;;;24.48;75.78
39793;BME280;26080;42.264;24.536;2022-10-01T08:55:55;99697.75;;;24.50;74.12
39793;BME280;26080;42.264;24.536;2022-10-01T08:58:28;99707.31;;;24.35;74.85
39793;BME280;26080;42.264;24.536;2022-10-01T09:00:56;99723.69;;;24.22;75.39
39793;BME280;26080;42.264;24.536;2022-10-01T09:03:21;99706.41;;;24.16;75.96
39793;BME280;26080;42.264;24.536;2022-10-01T09:20:00;99701.22;;;23.87;81.58
39793;BME280;26080;42.264;24.536;2022-10-01T09:25:11;99704.56;;;23.89;80.77
39793;BME280;26080;42.264;24.536;2022-10-01T09:27:37;99717.06;;;23.99;79.41
39793;BME280;26080;42.264;24.536;2022-10-01T09:30:23;99724.69;;;23.93;79.90
39793;BME280;26080;42.264;24.536;2022-10-01T09:33:01;99733.88;;;23.81;79.13
39793;BME280;26080;42.264;24.536;2022-10-01T09:35:43;99738.22;;;23.82;79.04
39793;BME280;26080;42.264;24.536;2022-10-01T09:38:35;99721.94;;;24.13;79.81
39793;BME280;26080;42.264;24.536;2022-10-01T09:41:02;99701.59;;;24.47;79.90
39793;BME280;26080;42.264;24.536;2022-10-01T09:43:30;99704.44;;;24.64;76.74
39793;BME280;26080;42.264;24.536;2022-10-01T09:45:57;99718.22;;;24.69;74.49
39793;BME280;26080;42.264;24.536;2022-10-01T09:48:33;99713.91;;;24.76;73.28
39793;BME280;26080;42.264;24.536;2022-10-01T09:51:22;99704.81;;;24.87;72.93
39793;BME280;26080;42.264;24.536;2022-10-01T09:56:36;99720.28;;;24.75;71.89
39793;BME280;26080;42.264;24.536;2022-10-01T09:59:08;99672.75;;;24.41;74.00
39793;BME280;26080;42.264;24.536;2022-10-01T10:01:45;99713.97;;;24.31;74.00
39793;BME280;26080;42.264;24.536;2022-10-01T10:04:18;99711.66;;;24.08;75.53
39793;BME280;26080;42.264;24.536;2022-10-01T10:06:46;99734.47;;;23.75;76.10
39793;BME280;26080;42.264;24.536;2022-10-01T10:09:17;99738.53;;;23.79;76.70
39793;BME280;26080;42.264;24.536;2022-10-01T10:11:43;99735.38;;;23.47;77.14
39793;BME280;26080;42.264;24.536;2022-10-01T10:14:17;99766.84;;;23.53;78.88
39793;BME280;26080;42.264;24.536;2022-10-01T10:16:45;99803.31;;;23.34;79.58
39793;BME280;26080;42.264;24.536;2022-10-01T10:19:30;99770.28;;;23.07;83.08
39793;BME280;26080;42.264;24.536;2022-10-01T10:22:09;99815.25;;;23.40;84.58
39793;BME280;26080;42.264;24.536;2022-10-01T10:24:35;99818.63;;;23.42;85.98
39793;BME280;26080;42.264;24.536;2022-10-01T10:27:03;99814.28;;;23.51;85.76
39793;BME280;26080;42.264;24.536;2022-10-01T10:29:32;99819.22;;;23.46;84.89
39793;BME280;26080;42.264;24.536;2022-10-01T10:32:01;99789.81;;;23.46;84.41
39793;BME280;26080;42.264;24.536;2022-10-01T10:34:36;99777.72;;;23.61;84.04
39793;BME280;26080;42.264;24.536;2022-10-01T10:37:14;99795.16;;;23.46;83.25
39793;BME280;26080;42.264;24.536;2022-10-01T10:39:44;99797.84;;;23.46;82.76
39793;BME280;26080;42.264;24.536;2022-10-01T10:42:14;99800.66;;;23.34;81.18
39793;BME280;26080;42.264;24.536;2022-10-01T10:44:42;99830.34;;;23.31;81.66
39793;BME280;26080;42.264;24.536;2022-10-01T10:47:11;99801.91;;;23.11;82.86
39793;BME280;26080;42.264;24.536;2022-10-01T10:49:55;99786.88;;;23.10;84.24
39793;BME280;26080;42.264;24.536;2022-10-01T10:52:33;99763.41;;;23.04;85.75
39793;BME280;26080;42.264;24.536;2022-10-01T10:55:16;99751.44;;;22.89;82.77
39793;BME280;26080;42.264;24.536;2022-10-01T10:57:44;99780.94;;;22.87;84.61
39793;BME280;26080;42.264;24.536;2022-10-01T11:00:16;99776.44;;;22.78;86.23
39793;BME280;26080;42.264;24.536;2022-10-01T11:02:59;99756.72;;;22.69;87.08
39793;BME280;26080;42.264;24.536;2022-10-01T11:05:28;99765.84;;;22.57;87.66
39793;BME280;26080;42.264;24.536;2022-10-01T11:07:58;99769.22;;;22.50;89.38
39793;BME280;26080;42.264;24.536;2022-10-01T11:16:34;99753.34;;;22.67;98.13
39793;BME280;26080;42.264;24.536;2022-10-01T11:19:24;99752.53;;;22.67;99.67
39793;BME280;26080;42.264;24.536;2022-10-01T11:24:53;99693.53;;;22.99;100.00
39793;BME280;26080;42.264;24.536;2022-10-01T11:30:06;99717.00;;;23.05;100.00
39793;BME280;26080;42.264;24.536;2022-10-01T11:35:26;99713.88;;;22.71;100.00
39793;BME280;26080;42.264;24.536;2022-10-01T11:40:39;99661.34;;;22.91;100.00
39793;BME280;26080;42.264;24.536;2022-10-01T11:45:43;99619.06;;;23.33;100.00
39793;BME280;26080;42.264;24.536;2022-10-01T11:48:17;99630.13;;;23.48;100.00
39793;BME280;26080;42.264;24.536;2022-10-01T11:50:49;99629.72;;;23.43;100.00
39793;BME280;26080;42.264;24.536;2022-10-01T11:53:52;99621.69;;;23.43;100.00
39793;BME280;26080;42.264;24.536;2022-10-01T11:56:19;99594.03;;;23.34;99.35
39793;BME280;26080;42.264;24.536;2022-10-01T11:59:16;99621.81;;;23.51;95.39
39793;BME280;26080;42.264;24.536;2022-10-01T12:01:54;99636.09;;;23.32;95.79
39793;BME280;26080;42.264;24.536;2022-10-01T12:04:41;99660.00;;;23.33;97.06
39793;BME280;26080;42.264;24.536;2022-10-01T12:12:22;99617.66;;;23.29;93.01
39793;BME280;26080;42.264;24.536;2022-10-01T12:14:53;99639.09;;;23.19;94.18
39793;BME280;26080;42.264;24.536;2022-10-01T12:20:00;99590.09;;;22.91;93.41
39793;BME280;26080;42.264;24.536;2022-10-01T12:22:31;99609.88;;;22.89;91.68
39793;BME280;26080;42.264;24.536;2022-10-01T12:24:59;99613.25;;;22.71;88.60
39793;BME280;26080;42.264;24.536;2022-10-01T12:30:11;99607.53;;;22.76;90.25
39793;BME280;26080;42.264;24.536;2022-10-01T12:33:42;99585.31;;;22.85;89.70
39793;BME280;26080;42.264;24.536;2022-10-01T12:44:12;99530.72;;;23.07;87.06
39793;BME280;26080;42.264;24.536;2022-10-01T12:49:36;99487.63;;;22.92;91.13
39793;BME280;26080;42.264;24.536;2022-10-01T13:00:49;99488.47;;;22.93;93.43
39793;BME280;26080;42.264;24.536;2022-10-01T13:09:02;99467.91;;;23.03;93.67
39793;BME280;26080;42.264;24.536;2022-10-01T13:14:10;99448.16;;;23.14;93.06
39793;BME280;26080;42.264;24.536;2022-10-01T13:16:42;99453.63;;;23.12;94.34
39793;BME280;26080;42.264;24.536;2022-10-01T13:19:46;99449.41;;;23.19;95.37
39793;BME280;26080;42.264;24.536;2022-10-01T13:22:33;99445.66;;;23.30;94.99
39793;BME280;26080;42.264;24.536;2022-10-01T13:27:46;99439.72;;;23.63;92.44
39793;BME280;26080;42.264;24.536;2022-10-01T13:30:19;99436.19;;;23.81;91.42
39793;BME280;26080;42.264;24.536;2022-10-01T13:32:58;99429.44;;;23.94;92.70
39793;BME280;26080;42.264;24.536;2022-10-01T13:35:32;99434.25;;;24.09;91.33
39793;BME280;26080;42.264;24.536;2022-10-01T13:37:58;99415.44;;;24.18;90.49
39793;BME280;26080;42.264;24.536;2022-10-01T13:40:29;99413.66;;;24.27;88.10
39793;BME280;26080;42.264;24.536;2022-10-01T13:43:00;99403.19;;;24.34;87.41
39793;BME280;26080;42.264;24.536;2022-10-01T13:45:47;99408.44;;;24.43;87.55
39793;BME280;26080;42.264;24.536;2022-10-01T13:48:15;99402.75;;;24.46;88.47
39793;BME280;26080;42.264;24.536;2022-10-01T13:51:05;99403.09;;;24.43;89.48
39793;BME280;26080;42.264;24.536;2022-10-01T13:56:12;99398.28;;;24.29;90.27
39793;BME280;26080;42.264;24.536;2022-10-01T13:58:45;99392.63;;;24.32;89.67
39793;BME280;26080;42.264;24.536;2022-10-01T14:07:24;99373.31;;;24.46;88.24
39793;BME280;26080;42.264;24.536;2022-10-01T14:09:56;99342.38;;;24.52;88.61
39793;BME280;26080;42.264;24.536;2022-10-01T14:12:30;99321.78;;;24.52;89.44
39793;BME280;26080;42.264;24.536;2022-10-01T14:15:23;99309.78;;;24.57;86.65
39793;BME280;26080;42.264;24.536;2022-10-01T14:18:18;99323.19;;;24.57;89.19
39793;BME280;26080;42.264;24.536;2022-10-01T14:26:14;99350.69;;;24.15;87.78
39793;BME280;26080;42.264;24.536;2022-10-01T14:28:52;99332.97;;;24.14;88.05
39793;BME280;26080;42.264;24.536;2022-10-01T14:37:14;99332.16;;;24.21;88.64
39793;BME280;26080;42.264;24.536;2022-10-01T14:39:40;99329.69;;;24.28;88.79
39793;BME280;26080;42.264;24.536;2022-10-01T14:42:08;99318.16;;;24.28;89.17
39793;BME280;26080;42.264;24.536;2022-10-01T14:44:45;99310.84;;;24.12;90.20
39793;BME280;26080;42.264;24.536;2022-10-01T14:47:18;99305.06;;;23.90;93.85
39793;BME280;26080;42.264;24.536;2022-10-01T14:49:44;99282.41;;;24.03;91.69
39793;BME280;26080;42.264;24.536;2022-10-01T14:52:22;99281.66;;;23.92;92.18
39793;BME280;26080;42.264;24.536;2022-10-01T14:57:28;99285.16;;;23.85;92.46
39793;BME280;26080;42.264;24.536;2022-10-01T14:59:56;99280.31;;;23.88;91.67
39793;BME280;26080;42.264;24.536;2022-10-01T15:02:24;99272.38;;;23.79;92.46
39793;BME280;26080;42.264;24.536;2022-10-01T15:04:53;99277.53;;;23.72;92.99
39793;BME280;26080;42.264;24.536;2022-10-01T15:07:19;99265.56;;;23.58;93.28
39793;BME280;26080;42.264;24.536;2022-10-01T15:09:45;99270.91;;;23.41;93.99
39793;BME280;26080;42.264;24.536;2022-10-01T15:12:12;99257.97;;;23.10;94.49
39793;BME280;26080;42.264;24.536;2022-10-01T15:14:39;99265.44;;;23.24;94.96
39793;BME280;26080;42.264;24.536;2022-10-01T15:17:10;99264.31;;;23.53;94.71